Time;durP1;ratioP1;P1;durP2;ratioP2;P2;SDS_P1;SDS_P2;PMS_P1;PMS_P2;Temp;Humidity;BMP_temperature;BMP_pressure;BME280_temperature;BME280_humidity;BME280_pressure;Samples;Min_cycle;Max_cycle;Signal;HPM_P1;HPM_P2
2021/09/02 00:04:44;;;;;;;;;;;;;;;;;;;;;
2021/09/02 00:07:49;;;;;;;8.85;6.68;;;17.60;91.20;;;;;;4888785;29;20129;-92
2021/09/02 00:10:49;;;;;;;8.55;6.43;;;17.50;91.30;;;;;;4887187;29;20032;-91
2021/09/02 00:13:48;;;;;;;;;;;;;;;;;;;;;
2021/09/02 00:17:14;;;;;;;;;;;;;;;;;;;;;
2021/09/02 00:20:24;;;;;;;;;;;;;;;;;;;;;
2021/09/02 00:23:10;;;;;;;;;;;;;;;;;;;;;
2021/09/02 00:26:06;;;;;;;;;;;;;;;;;;;;;
2021/09/02 00:29:01;;;;;;;;;;;;;;;;;;;;;
2021/09/02 00:32:23;;;;;;;;;;;;;;;;;;;;;
2021/09/02 00:38:24;;;;;;;9.20;6.78;;;17.40;91.90;;;;;;4893671;29;20100;-90
2021/09/02 00:44:42;;;;;;;9.13;6.63;;;17.40;92.10;;;;;;4881295;29;20084;-93
2021/09/02 00:48:04;;;;;;;9.27;7.07;;;17.40;92.00;;;;;;4892050;29;20051;-92
2021/09/02 00:50:49;;;;;;;;;;;;;;;;;;;;;
2021/09/02 00:56:51;;;;;;;10.02;6.85;;;17.30;91.90;;;;;;4890906;29;20040;-91
2021/09/02 01:00:01;;;;;;;10.02;6.50;;;17.30;91.80;;;;;;4898090;29;20029;-90
2021/09/02 01:05:42;;;;;;;12.13;6.78;;;17.30;91.80;;;;;;4897195;29;20037;-93
2021/09/02 01:11:43;;;;;;;;;;;;;;;;;;;;;
2021/09/02 01:15:10;;;;;;;11.70;6.90;;;17.30;91.80;;;;;;4885252;29;20473;-92
2021/09/02 01:18:13;;;;;;;10.90;7.05;;;17.30;91.80;;;;;;4885491;29;20043;-91
2021/09/02 01:24:03;;;;;;;10.80;7.78;;;17.20;91.60;;;;;;4887477;29;20335;-92
2021/09/02 01:26:50;;;;;;;11.15;7.60;;;17.20;91.50;;;;;;4900167;29;20127;-92
2021/09/02 01:29:28;;;;;;;9.20;7.88;;;17.20;91.50;;;;;;4894809;29;20045;-91
2021/09/02 01:32:09;;;;;;;;;;;;;;;;;;;;;
2021/09/02 01:34:53;;;;;;;10.48;8.00;;;17.20;91.40;;;;;;4900375;29;20032;-91
2021/09/02 01:38:19;;;;;;;;;;;;;;;;;;;;;
2021/09/02 01:41:14;;;;;;;;;;;;;;;;;;;;;
2021/09/02 01:44:02;;;;;;;10.23;7.75;;;17.20;91.50;;;;;;4888841;29;20055;-91
2021/09/02 01:47:16;;;;;;;11.07;8.35;;;17.20;91.60;;;;;;4897904;29;20044;-92
2021/09/02 01:53:19;;;;;;;;;;;;;;;;;;;;;
2021/09/02 01:56:17;;;;;;;;;;;;;;;;;;;;;
2021/09/02 01:58:57;;;;;;;;;;;;;;;;;;;;;
2021/09/02 02:01:54;;;;;;;;;;;;;;;;;;;;;
2021/09/02 02:04:50;;;;;;;11.10;7.80;;;17.00;91.40;;;;;;4894146;29;20109;-92
2021/09/02 02:07:20;;;;;;;12.27;7.53;;;17.00;91.40;;;;;;4899406;29;20036;-92
2021/09/02 02:13:15;;;;;;;10.55;7.75;;;17.00;91.40;;;;;;4896043;29;20080;-91
2021/09/02 02:16:14;;;;;;;11.27;7.40;;;17.00;91.70;;;;;;4893770;29;20088;-92
2021/09/02 02:19:38;;;;;;;;;;;;;;;;;;;;;
2021/09/02 02:22:32;;;;;;;13.07;7.55;;;17.00;91.40;;;;;;4902765;29;20052;-91
2021/09/02 02:25:48;;;;;;;;;;;;;;;;;;;;;
2021/09/02 02:28:40;;;;;;;;;;;;;;;;;;;;;
2021/09/02 02:34:27;;;;;;;;;;;;;;;;;;;;;
2021/09/02 02:37:35;;;;;;;;;;;;;;;;;;;;;
2021/09/02 02:40:21;;;;;;;11.93;7.72;;;16.90;91.60;;;;;;4891914;29;20132;-91
2021/09/02 02:43:03;;;;;;;12.10;7.75;;;16.90;91.60;;;;;;4873493;29;20039;-92
2021/09/02 02:46:02;;;;;;;;;;;;;;;;;;;;;
2021/09/02 02:48:51;;;;;;;;;;;;;;;;;;;;;
2021/09/02 02:51:29;;;;;;;;;;;;;;;;;;;;;
2021/09/02 02:54:27;;;;;;;10.73;7.18;;;16.90;91.60;;;;;;4886780;29;20021;-92
2021/09/02 02:56:59;;;;;;;11.25;8.15;;;16.90;91.70;;;;;;4900300;29;20401;-92
2021/09/02 02:59:53;;;;;;;11.38;7.88;;;16.90;92.00;;;;;;4910242;29;20032;-92
2021/09/02 03:02:48;;;;;;;11.95;8.20;;;16.90;91.80;;;;;;4875479;29;20540;-92
2021/09/02 03:05:59;;;;;;;13.88;8.05;;;16.90;91.80;;;;;;4893184;29;20033;-91
2021/09/02 03:09:07;;;;;;;;;;;;;;;;;;;;;
2021/09/02 03:15:33;;;;;;;;;;;;;;;;;;;;;
2021/09/02 03:18:20;;;;;;;12.18;8.55;;;16.90;91.90;;;;;;4874939;29;20496;-91
2021/09/02 03:21:42;;;;;;;12.48;9.43;;;16.90;91.90;;;;;;4881860;29;20033;-91
2021/09/02 03:24:58;;;;;;;;;;;;;;;;;;;;;
2021/09/02 03:36:44;;;;;;;;;;;;;;;;;;;;;
2021/09/02 03:39:41;;;;;;;;;;;;;;;;;;;;;
2021/09/02 03:42:20;;;;;;;;;;;;;;;;;;;;;
2021/09/02 03:45:12;;;;;;;;;;;;;;;;;;;;;
2021/09/02 03:48:02;;;;;;;15.07;10.20;;;16.80;92.20;;;;;;4888952;29;20039;-92
2021/09/02 03:51:03;;;;;;;12.95;9.80;;;16.80;92.30;;;;;;4878452;29;20025;-90
2021/09/02 03:54:03;;;;;;;12.18;9.25;;;16.80;92.30;;;;;;4894352;29;20033;-92
2021/09/02 03:56:52;;;;;;;15.43;10.00;;;16.80;92.30;;;;;;4872512;29;20064;-92
2021/09/02 04:00:12;;;;;;;;;;;;;;;;;;;;;
2021/09/02 04:03:03;;;;;;;15.00;9.98;;;16.80;92.40;;;;;;4894661;29;20055;-92
2021/09/02 04:06:10;;;;;;;;;;;;;;;;;;;;;
2021/09/02 04:08:57;;;;;;;14.80;9.52;;;16.80;92.40;;;;;;4898198;29;20501;-92
2021/09/02 04:11:38;;;;;;;;;;;;;;;;;;;;;
2021/09/02 04:14:54;;;;;;;15.00;11.13;;;16.80;92.40;;;;;;4898491;29;20104;-92
2021/09/02 04:17:56;;;;;;;15.88;11.05;;;16.70;92.40;;;;;;4900811;29;20052;-91
2021/09/02 04:23:49;;;;;;;;;;;;;;;;;;;;;
2021/09/02 04:26:48;;;;;;;;;;;;;;;;;;;;;
2021/09/02 04:29:21;;;;;;;13.25;9.90;;;16.70;92.40;;;;;;4894936;29;20033;-90
2021/09/02 04:35:31;;;;;;;;;;;;;;;;;;;;;
2021/09/02 04:38:10;;;;;;;14.48;11.88;;;16.70;92.40;;;;;;4899355;29;20500;-92
2021/09/02 04:41:11;;;;;;;;;;;;;;;;;;;;;
2021/09/02 04:44:29;;;;;;;16.02;11.45;;;16.70;92.50;;;;;;4892420;29;20482;-93
2021/09/02 04:47:23;;;;;;;16.73;11.57;;;16.60;92.50;;;;;;4901093;29;20041;-94
2021/09/02 04:50:12;;;;;;;18.17;12.00;;;16.60;92.60;;;;;;4886637;29;20047;-93
2021/09/02 04:53:14;;;;;;;15.13;10.57;;;16.60;92.50;;;;;;4889901;29;20127;-92
2021/09/02 04:56:05;;;;;;;17.88;11.57;;;16.60;92.60;;;;;;4896187;29;20148;-93
2021/09/02 04:58:33;;;;;;;18.42;12.45;;;16.60;92.50;;;;;;4877911;29;20041;-88
2021/09/02 05:01:31;;;;;;;19.50;12.07;;;16.60;92.40;;;;;;4893096;29;20032;-89
2021/09/02 05:04:12;;;;;;;18.63;11.52;;;16.60;92.40;;;;;;4895939;29;20089;-93
2021/09/02 05:09:56;;;;;;;;;;;;;;;;;;;;;
2021/09/02 05:16:07;;;;;;;18.15;11.73;;;16.30;92.30;;;;;;4878291;29;20036;-93
2021/09/02 05:19:34;;;;;;;;;;;;;;;;;;;;;
2021/09/02 05:24:53;;;;;;;17.67;11.13;;;16.20;92.30;;;;;;4892513;29;20143;-94
2021/09/02 05:30:28;;;;;;;16.67;10.23;;;16.20;92.40;;;;;;4883807;29;20043;-91
2021/09/02 05:33:20;;;;;;;16.98;11.10;;;16.20;92.40;;;;;;4890722;29;20037;-93
2021/09/02 05:36:09;;;;;;;17.30;11.30;;;16.20;92.40;;;;;;4884788;29;20033;-92
2021/09/02 05:39:05;;;;;;;19.25;10.90;;;16.20;92.40;;;;;;4900561;29;20127;-92
2021/09/02 05:42:11;;;;;;;16.17;10.88;;;16.20;92.40;;;;;;4887371;29;20048;-93
2021/09/02 05:45:09;;;;;;;15.82;11.07;;;16.20;92.40;;;;;;4867923;29;20041;-94
2021/09/02 05:48:24;;;;;;;15.75;11.50;;;16.30;92.50;;;;;;4886358;29;20040;-92
2021/09/02 05:51:18;;;;;;;;;;;;;;;;;;;;;
2021/09/02 05:54:44;;;;;;;19.92;13.40;;;16.30;92.50;;;;;;4897464;29;20021;-92
2021/09/02 05:57:39;;;;;;;;;;;;;;;;;;;;;
2021/09/02 06:03:28;;;;;;;;;;;;;;;;;;;;;
2021/09/02 06:09:57;;;;;;;;;;;;;;;;;;;;;
2021/09/02 06:12:57;;;;;;;;;;;;;;;;;;;;;
2021/09/02 06:15:35;;;;;;;;;;;;;;;;;;;;;
2021/09/02 06:18:56;;;;;;;;;;;;;;;;;;;;;
2021/09/02 06:31:43;;;;;;;;;;;;;;;;;;;;;
2021/09/02 06:45:17;;;;;;;;;;;;;;;;;;;;;
2021/09/02 07:22:53;;;;;;;;;;;;;;;;;;;;;
2021/09/02 07:25:57;;;;;;;;;;;;;;;;;;;;;
2021/09/02 07:35:49;;;;;;;;;;;;;;;;;;;;;
2021/09/02 07:38:53;;;;;;;8.05;5.57;;;17.00;90.90;;;;;;4894985;29;20557;-95
2021/09/02 07:42:08;;;;;;;12.88;6.40;;;17.10;91.00;;;;;;4906376;29;20054;-93
2021/09/02 07:48:51;;;;;;;;;;;;;;;;;;;;;
2021/09/02 07:52:09;;;;;;;8.30;5.95;;;17.30;90.80;;;;;;4912319;29;20438;-94
2021/09/02 07:55:10;;;;;;;9.25;5.22;;;17.40;90.70;;;;;;4897122;29;20030;-95
2021/09/02 07:58:41;;;;;;;;;;;;;;;;;;;;;
2021/09/02 08:01:37;;;;;;;;;;;;;;;;;;;;;
2021/09/02 08:08:29;;;;;;;9.85;5.85;;;17.50;90.40;;;;;;4878050;29;20124;-94
2021/09/02 08:12:31;;;;;;;;;;;;;;;;;;;;;
2021/09/02 08:14:42;;;;;;;;;;;;;;;;;;;;;
2021/09/02 08:18:04;;;;;;;;;;;;;;;;;;;;;
2021/09/02 08:21:24;;;;;;;;;;;;;;;;;;;;;
2021/09/02 08:24:23;;;;;;;;;;;;;;;;;;;;;
2021/09/02 08:27:45;;;;;;;;;;;;;;;;;;;;;
2021/09/02 08:38:21;;;;;;;;;;;;;;;;;;;;;
2021/09/02 08:52:05;;;;;;;;;;;;;;;;;;;;;
2021/09/02 08:55:24;;;;;;;;;;;;;;;;;;;;;
2021/09/02 09:09:29;;;;;;;;;;;;;;;;;;;;;
2021/09/02 09:13:15;;;;;;;;;;;;;;;;;;;;;
2021/09/02 09:27:30;;;;;;;;;;;;;;;;;;;;;
2021/09/02 09:30:43;;;;;;;;;;;;;;;;;;;;;
2021/09/02 09:54:49;;;;;;;;;;;;;;;;;;;;;
2021/09/02 10:11:42;;;;;;;;;;;;;;;;;;;;;
2021/09/02 10:33:20;;;;;;;;;;;;;;;;;;;;;
2021/09/02 10:40:12;;;;;;;;;;;;;;;;;;;;;
2021/09/02 10:46:48;;;;;;;;;;;;;;;;;;;;;
2021/09/02 10:56:56;;;;;;;;;;;;;;;;;;;;;
2021/09/02 11:07:10;;;;;;;;;;;;;;;;;;;;;
2021/09/02 11:20:36;;;;;;;;;;;;;;;;;;;;;
2021/09/02 11:23:42;;;;;;;;;;;;;;;;;;;;;
2021/09/02 11:37:05;;;;;;;;;;;;;;;;;;;;;
2021/09/02 11:43:40;;;;;;;;;;;;;;;;;;;;;
2021/09/02 11:57:38;;;;;;;;;;;;;;;;;;;;;
2021/09/02 12:04:08;;;;;;;;;;;;;;;;;;;;;
2021/09/02 12:33:41;;;;;;;;;;;;;;;;;;;;;
2021/09/02 12:40:41;;;;;;;;;;;;;;;;;;;;;
2021/09/02 12:47:14;;;;;;;;;;;;;;;;;;;;;
2021/09/02 12:53:09;;;;;;;7.63;5.85;;;20.70;76.20;;;;;;4889404;29;20387;-85
2021/09/02 12:55:37;;;;;;;12.27;6.43;;;20.70;75.50;;;;;;4907469;29;20033;-84
2021/09/02 12:58:30;;;;;;;9.43;5.05;;;20.70;75.30;;;;;;4878446;29;20127;-87
2021/09/02 13:01:01;;;;;;;10.70;6.43;;;20.70;75.40;;;;;;4881471;29;20029;-86
2021/09/02 13:03:39;;;;;;;8.85;5.57;;;20.70;75.10;;;;;;4889509;29;20021;-84
2021/09/02 13:06:12;;;;;;;7.72;5.00;;;20.60;74.30;;;;;;4877003;29;20124;-84
2021/09/02 13:08:41;;;;;;;7.22;5.07;;;20.60;74.90;;;;;;4884827;29;20027;-87
2021/09/02 13:11:10;;;;;;;12.43;6.13;;;20.60;75.70;;;;;;4874681;29;20042;-85
2021/09/02 13:13:38;;;;;;;7.53;5.13;;;20.60;75.70;;;;;;4884066;29;20030;-85
2021/09/02 13:18:52;;;;;;;9.10;5.88;;;20.60;75.60;;;;;;4888427;29;20040;-87
2021/09/02 13:21:22;;;;;;;9.98;5.70;;;20.70;75.10;;;;;;4894533;29;20423;-87
2021/09/02 13:23:51;;;;;;;11.73;6.10;;;20.70;74.90;;;;;;4894913;29;20136;-85
2021/09/02 13:26:17;;;;;;;8.27;5.57;;;20.70;74.00;;;;;;4893640;29;20028;-86
2021/09/02 13:28:53;;;;;;;7.15;4.80;;;20.70;74.10;;;;;;4898057;29;20084;-87
2021/09/02 13:31:21;;;;;;;8.48;4.97;;;20.70;74.90;;;;;;4901317;29;20124;-86
2021/09/02 13:33:49;;;;;;;9.52;5.65;;;20.80;74.90;;;;;;4896799;29;20096;-84
2021/09/02 13:36:17;;;;;;;9.27;6.07;;;20.80;74.60;;;;;;4915118;29;20025;-88
2021/09/02 13:38:46;;;;;;;8.52;5.53;;;20.80;73.60;;;;;;4910818;29;20031;-86
2021/09/02 13:41:17;;;;;;;7.28;5.00;;;20.90;73.80;;;;;;4904071;29;20047;-84
2021/09/02 13:43:43;;;;;;;6.85;4.80;;;20.90;73.90;;;;;;4916079;29;20037;-84
2021/09/02 13:46:19;;;;;;;9.63;5.28;;;21.00;74.50;;;;;;4894750;29;20037;-85
2021/09/02 13:48:45;;;;;;;8.57;5.47;;;21.00;74.90;;;;;;4884647;29;20036;-85
2021/09/02 13:51:13;;;;;;;8.50;5.32;;;21.00;74.90;;;;;;4881745;29;20051;-85
2021/09/02 13:53:51;;;;;;;9.07;5.40;;;21.10;74.30;;;;;;4897099;29;20033;-85
2021/09/02 13:56:16;;;;;;;10.38;6.15;;;21.20;74.40;;;;;;4885207;29;20432;-85
2021/09/02 13:58:44;;;;;;;8.73;5.20;;;21.20;73.60;;;;;;4873857;29;20024;-87
2021/09/02 14:01:17;;;;;;;7.78;4.70;;;21.20;73.40;;;;;;4891000;29;20378;-86
2021/09/02 14:03:43;;;;;;;8.02;4.57;;;21.20;73.50;;;;;;4889489;29;20043;-87
2021/09/02 14:06:11;;;;;;;6.95;4.65;;;21.20;73.70;;;;;;4893876;29;20037;-83
2021/09/02 14:08:37;;;;;;;6.43;4.43;;;21.20;74.10;;;;;;4893671;29;20044;-83
2021/09/02 14:11:03;;;;;;;7.15;5.22;;;21.30;74.50;;;;;;4894111;29;20533;-84
2021/09/02 14:13:28;;;;;;;9.60;5.65;;;21.20;74.30;;;;;;4878144;29;20033;-83
2021/09/02 14:15:54;;;;;;;9.35;5.53;;;21.20;73.90;;;;;;4895907;29;20103;-85
2021/09/02 14:18:20;;;;;;;7.25;5.50;;;21.20;73.30;;;;;;4893502;29;20064;-84
2021/09/02 14:20:45;;;;;;;9.02;5.80;;;21.30;73.10;;;;;;4897675;29;20107;-81
2021/09/02 14:23:12;;;;;;;10.27;5.80;;;21.30;72.80;;;;;;4898290;29;20057;-82
2021/09/02 14:25:38;;;;;;;7.75;5.75;;;21.30;72.80;;;;;;4896602;29;20044;-81
2021/09/02 14:28:03;;;;;;;8.52;4.93;;;21.30;72.70;;;;;;4878910;29;20041;-81
2021/09/02 14:30:30;;;;;;;10.00;5.80;;;21.30;72.80;;;;;;4878383;29;20029;-81
2021/09/02 14:32:56;;;;;;;6.07;4.53;;;21.30;72.40;;;;;;4883771;29;20509;-81
2021/09/02 14:35:22;;;;;;;7.25;4.85;;;21.30;72.90;;;;;;4901815;29;20044;-81
2021/09/02 14:37:50;;;;;;;9.38;6.53;;;21.30;72.90;;;;;;4903875;29;20051;-83
2021/09/02 14:40:16;;;;;;;9.70;5.70;;;21.30;72.40;;;;;;4886083;29;20032;-82
2021/09/02 14:42:42;;;;;;;11.07;7.13;;;21.30;72.30;;;;;;4896641;29;20481;-82
2021/09/02 14:45:08;;;;;;;6.93;5.28;;;21.30;72.00;;;;;;4887409;29;20084;-86
2021/09/02 14:47:33;;;;;;;9.98;5.60;;;21.30;72.30;;;;;;4895248;29;20085;-82
2021/09/02 14:50:02;;;;;;;11.27;6.68;;;21.30;72.50;;;;;;4900159;29;20057;-83
2021/09/02 14:52:29;;;;;;;8.48;5.43;;;21.30;71.40;;;;;;4894341;29;20080;-84
2021/09/02 14:54:56;;;;;;;7.45;5.20;;;21.30;71.50;;;;;;4897108;29;20398;-84
2021/09/02 14:57:23;;;;;;;10.02;5.45;;;21.30;71.90;;;;;;4899995;29;20132;-85
2021/09/02 14:59:50;;;;;;;8.60;4.90;;;21.30;72.30;;;;;;4897531;29;20118;-85
2021/09/02 15:02:17;;;;;;;10.02;5.78;;;21.40;72.60;;;;;;4896745;29;20088;-84
2021/09/02 15:04:43;;;;;;;10.30;5.32;;;21.40;72.40;;;;;;4911077;29;20060;-84
2021/09/02 15:07:11;;;;;;;11.00;5.60;;;21.40;72.00;;;;;;4895837;29;20089;-84
2021/09/02 15:09:37;;;;;;;7.93;5.38;;;21.40;71.70;;;;;;4889709;29;20036;-83
2021/09/02 15:12:06;;;;;;;5.10;4.53;;;21.40;71.80;;;;;;4899953;29;20080;-84
2021/09/02 15:14:32;;;;;;;7.15;4.45;;;21.40;72.20;;;;;;4892220;29;20036;-85
2021/09/02 15:16:58;;;;;;;7.85;4.80;;;21.30;72.70;;;;;;4917333;29;20036;-85
2021/09/02 15:19:26;;;;;;;7.43;4.18;;;21.30;73.10;;;;;;4895613;29;20124;-84
2021/09/02 15:22:07;;;;;;;8.63;5.00;;;21.30;73.50;;;;;;4902053;29;20116;-84
2021/09/02 15:24:33;;;;;;;8.18;5.43;;;21.30;73.70;;;;;;4908358;29;20025;-84
2021/09/02 15:27:04;;;;;;;6.88;4.68;;;21.30;72.90;;;;;;4883050;29;20489;-85
2021/09/02 15:29:30;;;;;;;7.50;4.55;;;21.30;73.20;;;;;;4892189;29;20071;-85
2021/09/02 15:31:58;;;;;;;7.68;4.70;;;21.30;73.20;;;;;;4896585;29;20052;-85
2021/09/02 15:34:26;;;;;;;8.13;5.10;;;21.30;73.40;;;;;;4887685;29;20033;-84
2021/09/02 15:36:52;;;;;;;8.90;4.50;;;21.30;72.70;;;;;;4889817;29;20068;-84
2021/09/02 15:39:18;;;;;;;9.70;5.75;;;21.30;72.70;;;;;;4901254;29;20075;-84
2021/09/02 15:41:46;;;;;;;7.45;4.82;;;21.30;72.00;;;;;;4896837;29;20033;-84
2021/09/02 15:44:20;;;;;;;9.10;4.88;;;21.40;72.50;;;;;;4897909;29;20043;-84
2021/09/02 15:46:46;;;;;;;8.63;5.03;;;21.40;72.60;;;;;;4880803;29;20040;-83
2021/09/02 15:49:14;;;;;;;10.43;6.22;;;21.40;72.80;;;;;;4901696;29;20099;-84
2021/09/02 15:51:40;;;;;;;7.03;4.72;;;21.40;71.70;;;;;;4895540;29;20028;-83
2021/09/02 15:54:05;;;;;;;6.03;4.55;;;21.30;71.80;;;;;;4896473;29;20363;-83
2021/09/02 15:56:33;;;;;;;8.77;5.25;;;21.30;72.10;;;;;;4883748;29;20533;-85
2021/09/02 15:58:59;;;;;;;8.98;5.35;;;21.30;72.20;;;;;;4892116;29;20020;-83
2021/09/02 16:01:25;;;;;;;8.63;4.85;;;21.30;72.10;;;;;;4890293;29;20031;-84
2021/09/02 16:03:53;;;;;;;5.75;4.57;;;21.40;72.40;;;;;;4897936;29;20032;-85
2021/09/02 16:06:19;;;;;;;8.25;4.75;;;21.40;71.80;;;;;;4893775;29;20035;-83
2021/09/02 16:08:45;;;;;;;8.95;4.95;;;21.40;71.80;;;;;;4903222;29;20448;-84
2021/09/02 16:11:11;;;;;;;8.02;5.00;;;21.40;71.70;;;;;;4888208;29;20059;-83
2021/09/02 16:13:41;;;;;;;9.05;4.40;;;21.40;72.10;;;;;;4899543;29;20033;-84
2021/09/02 16:16:07;;;;;;;7.35;4.97;;;21.40;72.60;;;;;;4898747;29;20032;-85
2021/09/02 16:18:35;;;;;;;5.95;5.00;;;21.30;73.10;;;;;;4893500;29;20040;-84
2021/09/02 16:21:01;;;;;;;7.93;4.50;;;21.40;73.60;;;;;;4895040;29;20397;-83
2021/09/02 16:23:27;;;;;;;8.32;4.82;;;21.30;73.50;;;;;;4880277;29;20029;-84
2021/09/02 16:25:52;;;;;;;11.38;8.73;;;21.30;73.20;;;;;;4896481;29;20043;-83
2021/09/02 16:28:21;;;;;;;10.13;7.28;;;21.30;72.80;;;;;;4891678;29;20047;-85
2021/09/02 16:30:47;;;;;;;7.28;5.22;;;21.30;73.00;;;;;;4892337;29;20021;-85
2021/09/02 16:33:14;;;;;;;7.05;5.20;;;21.30;72.90;;;;;;4895085;29;20473;-83
2021/09/02 16:35:39;;;;;;;6.88;4.50;;;21.30;72.90;;;;;;4898436;29;20029;-84
2021/09/02 16:38:08;;;;;;;7.93;4.90;;;21.30;73.20;;;;;;4891132;29;20036;-88
2021/09/02 16:40:37;;;;;;;6.47;4.90;;;21.20;73.10;;;;;;4897906;29;20029;-85
2021/09/02 16:43:15;;;;;;;;;;;;;;;;;;;;;
2021/09/02 16:45:52;;;;;;;8.25;4.95;;;21.20;73.00;;;;;;4890168;29;20037;-96
2021/09/02 16:48:33;;;;;;;;;;;;;;;;;;;;;
2021/09/02 16:51:58;;;;;;;;;;;;;;;;;;;;;
2021/09/02 16:54:46;;;;;;;6.72;4.50;;;21.10;73.40;;;;;;4884623;29;20458;-93
2021/09/02 16:58:02;;;;;;;7.82;5.00;;;21.10;73.60;;;;;;4899983;29;20044;-90
2021/09/02 17:00:45;;;;;;;9.25;5.80;;;21.10;73.80;;;;;;4902551;29;20092;-92
2021/09/02 17:04:35;;;;;;;;;;;;;;;;;;;;;
2021/09/02 17:07:44;;;;;;;;;;;;;;;;;;;;;
2021/09/02 17:14:45;;;;;;;;;;;;;;;;;;;;;
2021/09/02 17:20:52;;;;;;;;;;;;;;;;;;;;;
2021/09/02 17:23:47;;;;;;;9.70;6.93;;;20.80;75.40;;;;;;4879771;29;20037;-90
2021/09/02 17:26:40;;;;;;;;;;;;;;;;;;;;;
2021/09/02 17:33:10;;;;;;;;;;;;;;;;;;;;;
2021/09/02 17:35:58;;;;;;;;;;;;;;;;;;;;;
2021/09/02 17:42:03;;;;;;;;;;;;;;;;;;;;;
2021/09/02 17:44:55;;;;;;;6.90;4.82;;;20.40;77.00;;;;;;4897409;29;20391;-89
2021/09/02 18:10:40;;;;;;;7.75;4.90;;;20.00;78.80;;;;;;4873198;29;20505;-90
2021/09/02 18:13:33;;;;;;;8.18;4.80;;;19.90;79.00;;;;;;4882202;29;20381;-93
2021/09/02 18:16:15;;;;;;;8.00;5.15;;;19.90;79.30;;;;;;4860636;29;20056;-90
2021/09/02 18:22:45;;;;;;;;;;;;;;;;;;;;;
2021/09/02 18:25:31;;;;;;;;;;;19.70;79.90;;;;;;4888669;29;20024;-90
2021/09/02 18:31:23;;;;;;;13.07;5.22;;;19.60;80.50;;;;;;4884332;29;20033;-93
2021/09/02 18:34:18;;;;;;;8.77;5.55;;;19.50;80.80;;;;;;4892219;29;20032;-92
2021/09/02 18:37:16;;;;;;;;;;;;;;;;;;;;;
2021/09/02 18:40:04;;;;;;;;;;;;;;;;;;;;;
2021/09/02 18:42:52;;;;;;;6.28;4.68;;;19.30;81.50;;;;;;4904208;29;20040;-90
2021/09/02 18:48:28;;;;;;;8.23;4.90;;;19.20;81.70;;;;;;4888635;29;20040;-91
2021/09/02 18:51:28;;;;;;;7.38;5.32;;;19.20;81.70;;;;;;4901696;29;20035;-91
2021/09/02 18:54:30;;;;;;;;;;;;;;;;;;;;;
2021/09/02 19:00:15;;;;;;;8.60;5.57;;;19.10;82.10;;;;;;4882192;29;20045;-88
2021/09/02 19:03:19;;;;;;;7.55;5.47;;;19.00;82.20;;;;;;4892749;29;20111;-89
2021/09/02 19:06:36;;;;;;;;;;;;;;;;;;;;;
2021/09/02 19:16:07;;;;;;;;;;;;;;;;;;;;;
2021/09/02 19:18:58;;;;;;;9.63;6.03;;;18.90;83.00;;;;;;4893684;29;20056;-89
2021/09/02 19:21:38;;;;;;;7.65;5.45;;;18.80;83.10;;;;;;4902235;29;20028;-89
2021/09/02 19:24:48;;;;;;;7.53;6.70;;;18.70;83.10;;;;;;4885667;29;20503;-90
2021/09/02 19:31:45;;;;;;;;;;;;;;;;;;;;;
2021/09/02 19:35:00;;;;;;;9.15;5.88;;;18.70;83.50;;;;;;4892335;29;20054;-89
2021/09/02 19:38:31;;;;;;;7.65;5.70;;;18.60;83.60;;;;;;4847021;29;20132;-88
2021/09/02 19:40:56;;;;;;;9.15;6.10;;;18.60;83.70;;;;;;4893508;29;20043;-90
2021/09/02 19:44:17;;;;;;;;;;;;;;;;;;;;;
2021/09/02 19:50:12;;;;;;;8.68;5.22;;;18.50;83.90;;;;;;4878049;29;19912;-90
2021/09/02 19:52:50;;;;;;;;;;;18.40;84.00;;;;;;4848672;29;20037;-89
2021/09/02 19:55:48;;;;;;;9.73;5.82;;;18.40;84.00;;;;;;4897208;29;19967;-88
2021/09/02 19:58:54;;;;;;;;;;;;;;;;;;;;;
2021/09/02 20:04:49;;;;;;;;;;;;;;;;;;;;;
2021/09/02 20:07:41;;;;;;;;;;;18.30;84.80;;;;;;4898971;29;20048;-87
2021/09/02 20:13:16;;;;;;;8.27;6.20;;;18.20;85.10;;;;;;4899081;29;20115;-87
2021/09/02 20:16:09;;;;;;;9.23;6.45;;;18.10;85.20;;;;;;4893004;29;20047;-89
2021/09/02 20:18:54;;;;;;;;;;;;;;;;;;;;;
2021/09/02 20:21:45;;;;;;;9.25;6.20;;;18.10;85.70;;;;;;4889331;29;20043;-91
2021/09/02 20:24:40;;;;;;;9.23;6.50;;;18.10;85.90;;;;;;4897059;29;20037;-88
2021/09/02 20:27:39;;;;;;;;;;;;;;;;;;;;;
2021/09/02 20:30:59;;;;;;;8.38;6.65;;;17.90;86.10;;;;;;4895120;29;20363;-89
2021/09/02 20:33:29;;;;;;;11.35;7.05;;;17.90;86.20;;;;;;4883352;29;20044;-87
2021/09/02 20:36:44;;;;;;;11.30;6.50;;;17.90;86.40;;;;;;4893733;29;20029;-90
2021/09/02 20:39:43;;;;;;;;;;;;;;;;;;;;;
2021/09/02 20:42:41;;;;;;;;;;;;;;;;;;;;;
2021/09/02 20:45:27;;;;;;;;;;;;;;;;;;;;;
2021/09/02 20:48:12;;;;;;;9.25;6.88;;;17.70;86.80;;;;;;4891453;29;20036;-90
2021/09/02 20:51:04;;;;;;;9.05;6.28;;;17.70;87.00;;;;;;4890548;29;20024;-88
2021/09/02 20:54:21;;;;;;;10.80;7.28;;;17.70;87.00;;;;;;4886753;29;20037;-88
2021/09/02 20:57:04;;;;;;;11.60;7.10;;;17.70;87.00;;;;;;4882830;29;20037;-90
2021/09/02 20:59:52;;;;;;;11.38;7.47;;;17.70;87.10;;;;;;4894160;29;20127;-87
2021/09/02 21:02:20;;;;;;;9.18;6.63;;;17.70;87.10;;;;;;4883652;29;20199;-90
2021/09/02 21:05:08;;;;;;;;;;;;;;;;;;;;;
2021/09/02 21:08:21;;;;;;;9.18;7.10;;;17.60;87.10;;;;;;4881561;29;20438;-88
2021/09/02 21:11:11;;;;;;;9.27;6.53;;;17.60;87.20;;;;;;4884015;29;20041;-88
2021/09/02 21:14:17;;;;;;;9.93;6.97;;;17.60;87.30;;;;;;4878007;29;20463;-88
2021/09/02 21:16:58;;;;;;;11.07;7.45;;;17.60;87.40;;;;;;4878293;29;20443;-87
2021/09/02 21:19:44;;;;;;;;;;;;;;;;;;;;;
2021/09/02 21:22:30;;;;;;;9.85;7.38;;;17.60;87.70;;;;;;4892630;29;20033;-87
2021/09/02 21:25:38;;;;;;;;;;;;;;;;;;;;;
2021/09/02 21:28:31;;;;;;;11.35;7.13;;;17.50;87.90;;;;;;4891858;29;20497;-87
2021/09/02 21:31:56;;;;;;;;;;;;;;;;;;;;;
2021/09/02 21:34:51;;;;;;;;;;;;;;;;;;;;;
2021/09/02 21:37:50;;;;;;;;;;;;;;;;;;;;;
2021/09/02 21:40:20;;;;;;;10.50;6.78;;;17.40;88.00;;;;;;4889239;29;20040;-87
2021/09/02 21:43:27;;;;;;;11.93;7.32;;;17.40;88.10;;;;;;4885464;29;20033;-88
2021/09/02 21:46:15;;;;;;;9.70;6.63;;;17.40;88.20;;;;;;4912961;29;20028;-87
2021/09/02 21:52:15;;;;;;;11.77;6.78;;;17.30;88.20;;;;;;4909199;29;20416;-89
2021/09/02 21:54:57;;;;;;;9.52;7.47;;;17.30;88.30;;;;;;4882388;29;20199;-88
2021/09/02 21:57:27;;;;;;;11.60;7.50;;;17.30;88.40;;;;;;4874193;29;20409;-89
2021/09/02 22:00:31;;;;;;;;;;;;;;;;;;;;;
2021/09/02 22:03:02;;;;;;;;;;;;;;;;;;;;;
2021/09/02 22:06:00;;;;;;;;;;;;;;;;;;;;;
2021/09/02 22:09:03;;;;;;;12.23;7.47;;;17.20;88.60;;;;;;4884833;29;20036;-87
2021/09/02 22:11:53;;;;;;;9.38;6.50;;;17.20;88.70;;;;;;4883166;29;20043;-88
2021/09/02 22:15:12;;;;;;;;;;;;;;;;;;;;;
2021/09/02 22:17:50;;;;;;;13.75;7.70;;;17.10;88.80;;;;;;4900100;29;20047;-87
2021/09/02 22:21:01;;;;;;;;;;;;;;;;;;;;;
2021/09/02 22:23:43;;;;;;;11.45;8.57;;;17.10;89.00;;;;;;4879741;29;20045;-89
2021/09/02 22:26:46;;;;;;;;;;;;;;;;;;;;;
2021/09/02 22:29:06;;;;;;;10.98;8.20;;;17.00;89.20;;;;;;4896318;29;20029;-86
2021/09/02 22:31:53;;;;;;;12.52;8.80;;;17.00;89.30;;;;;;4894600;29;20039;-87
2021/09/02 22:34:58;;;;;;;13.32;8.68;;;17.00;89.30;;;;;;4895971;29;20541;-87
2021/09/02 22:37:31;;;;;;;17.73;10.02;;;17.00;89.30;;;;;;4881265;29;20442;-87
2021/09/02 22:40:20;;;;;;;11.60;9.00;;;17.00;89.40;;;;;;4897787;29;20032;-87
2021/09/02 22:43:00;;;;;;;12.00;8.38;;;16.90;89.70;;;;;;4883992;29;20055;-87
2021/09/02 22:48:42;;;;;;;16.08;9.98;;;16.90;89.70;;;;;;4874204;29;20053;-87
2021/09/02 22:51:37;;;;;;;11.82;9.18;;;16.80;89.80;;;;;;4897287;29;20119;-88
2021/09/02 22:54:34;;;;;;;;;;;;;;;;;;;;;
2021/09/02 23:00:39;;;;;;;12.93;9.40;;;16.70;90.10;;;;;;4897662;29;20048;-87
2021/09/02 23:03:22;;;;;;;;;;;;;;;;;;;;;
2021/09/02 23:06:23;;;;;;;14.73;9.18;;;16.70;90.20;;;;;;4898015;29;20059;-88
2021/09/02 23:09:48;;;;;;;;;;;;;;;;;;;;;
2021/09/02 23:12:17;;;;;;;14.68;9.38;;;16.60;90.30;;;;;;4895533;29;20037;-87
2021/09/02 23:18:19;;;;;;;;;;;;;;;;;;;;;
2021/09/02 23:21:15;;;;;;;12.13;9.10;;;16.60;90.40;;;;;;4844216;29;20046;-88
2021/09/02 23:24:19;;;;;;;;;;;;;;;;;;;;;
2021/09/02 23:27:06;;;;;;;;;;;;;;;;;;;;;
2021/09/02 23:35:39;;;;;;;14.27;8.80;;;16.50;90.40;;;;;;4893182;29;20119;-88
2021/09/02 23:38:32;;;;;;;13.13;9.55;;;16.50;90.40;;;;;;4895801;29;20051;-88
2021/09/02 23:41:22;;;;;;;;;;;;;;;;;;;;;
2021/09/02 23:44:27;;;;;;;;;;;;;;;;;;;;;
2021/09/02 23:47:27;;;;;;;15.45;9.90;;;16.50;90.50;;;;;;4893494;29;20040;-88
2021/09/02 23:50:17;;;;;;;15.75;9.90;;;16.50;90.50;;;;;;4897603;29;20494;-88
2021/09/02 23:52:53;;;;;;;15.52;9.32;;;16.40;90.60;;;;;;4900429;29;20036;-87
2021/09/02 23:55:59;;;;;;;;;;;;;;;;;;;;;
2021/09/02 23:58:47;;;;;;;15.30;10.02;;;16.40;90.70;;;;;;4901756;29;20049;-88
